createdAt,value
2023-01-09T00:01:16.244Z,16.27
2023-01-09T00:03:44.223Z,14.27
2023-01-09T00:06:12.315Z,14.93
2023-01-09T00:08:40.339Z,14.17
2023-01-09T00:11:08.596Z,15.33
2023-01-09T00:13:36.807Z,17.17
2023-01-09T00:16:07.253Z,16.23
2023-01-09T00:18:36.276Z,15.30
2023-01-09T00:21:05.397Z,15.57
2023-01-09T00:23:34.156Z,18.43
2023-01-09T00:26:07.120Z,14.70
2023-01-09T00:28:35.549Z,15.80
2023-01-09T00:31:06.782Z,15.70
2023-01-09T00:33:36.977Z,18.10
2023-01-09T00:36:05.789Z,16.90
2023-01-09T00:38:33.712Z,15.37
2023-01-09T00:41:03.242Z,15.23
2023-01-09T00:43:36.505Z,17.30
2023-01-09T00:46:08.963Z,15.50
2023-01-09T00:48:39.737Z,19.13
2023-01-09T00:51:08.911Z,15.67
2023-01-09T00:53:39.537Z,18.07
2023-01-09T00:56:12.259Z,15.73
2023-01-09T00:58:40.483Z,15.80
2023-01-09T01:01:09.940Z,16.43
2023-01-09T01:03:37.977Z,16.03
2023-01-09T01:06:24.235Z,18.60
2023-01-09T01:08:52.142Z,19.10
2023-01-09T01:11:20.194Z,18.17
2023-01-09T01:13:48.236Z,16.07
2023-01-09T01:16:18.316Z,17.73
2023-01-09T01:18:46.928Z,18.97
2023-01-09T01:21:15.834Z,20.13
2023-01-09T01:23:44.177Z,18.13
2023-01-09T01:26:14.201Z,19.67
2023-01-09T01:28:43.249Z,18.80
2023-01-09T01:31:19.557Z,15.47
2023-01-09T01:33:47.468Z,20.20
2023-01-09T01:36:17.338Z,20.20
2023-01-09T01:38:46.773Z,18.60
2023-01-09T01:41:14.782Z,19.70
2023-01-09T01:43:53.627Z,20.20
2023-01-09T01:46:23.259Z,20.67
2023-01-09T01:48:55.227Z,23.10
2023-01-09T01:51:24.092Z,21.30
2023-01-09T01:53:54.780Z,22.77
2023-01-09T01:56:27.418Z,20.60
2023-01-09T01:58:59.436Z,20.03
2023-01-09T02:01:30.492Z,20.10
2023-01-09T02:03:59.936Z,22.43
2023-01-09T02:06:28.707Z,18.80
2023-01-09T02:08:57.252Z,23.37
2023-01-09T02:11:25.435Z,20.57
2023-01-09T02:13:53.911Z,25.13
2023-01-09T02:16:40.104Z,27.33
2023-01-09T02:19:26.215Z,24.00
2023-01-09T02:22:08.573Z,21.33
2023-01-09T02:24:58.268Z,24.67
2023-01-09T02:28:00.422Z,24.60
2023-01-09T02:30:36.139Z,26.40
2023-01-09T02:33:17.599Z,23.93
2023-01-09T02:36:02.365Z,23.80
2023-01-09T02:38:36.845Z,24.77
2023-01-09T02:41:12.386Z,27.87
2023-01-09T02:43:40.983Z,23.97
2023-01-09T02:46:20.494Z,27.73
2023-01-09T02:48:52.035Z,25.17
2023-01-09T02:51:27.239Z,24.87
2023-01-09T02:54:09.311Z,28.10
2023-01-09T02:56:53.862Z,23.70
2023-01-09T02:59:28.284Z,21.67
2023-01-09T03:02:11.944Z,21.47
2023-01-09T03:04:47.035Z,24.40
2023-01-09T03:07:23.528Z,24.07
2023-01-09T03:09:57.232Z,25.73
2023-01-09T03:12:29.390Z,22.23
2023-01-09T03:15:00.670Z,23.43
2023-01-09T03:17:37.295Z,21.67
2023-01-09T03:20:08.671Z,22.63
2023-01-09T03:22:36.639Z,23.20
2023-01-09T03:25:04.683Z,25.63
2023-01-09T03:27:33.177Z,22.93
2023-01-09T03:30:01.319Z,22.03
2023-01-09T03:32:30.568Z,22.90
2023-01-09T03:34:58.440Z,18.83
2023-01-09T03:37:26.344Z,23.07
2023-01-09T03:39:54.252Z,20.80
2023-01-09T03:42:22.211Z,23.37
2023-01-09T03:44:51.959Z,22.57
2023-01-09T03:47:19.869Z,25.80
2023-01-09T03:49:49.160Z,24.40
2023-01-09T03:52:17.075Z,24.73
2023-01-09T03:54:45.000Z,21.90
2023-01-09T03:57:12.900Z,24.10
2023-01-09T03:59:40.880Z,23.07
2023-01-09T04:02:08.988Z,23.33
2023-01-09T04:04:37.103Z,23.03
2023-01-09T04:07:06.375Z,24.30
2023-01-09T04:09:34.259Z,21.50
2023-01-09T04:12:02.166Z,25.90
2023-01-09T04:14:30.096Z,26.00
2023-01-09T04:16:58.004Z,23.97
2023-01-09T04:19:25.907Z,25.00
2023-01-09T04:21:53.890Z,23.77
2023-01-09T04:24:23.127Z,24.83
2023-01-09T04:26:51.210Z,26.63
2023-01-09T04:29:19.155Z,26.40
2023-01-09T04:31:47.107Z,25.13
2023-01-09T04:34:15.331Z,24.30
2023-01-09T04:36:43.897Z,29.80
2023-01-09T04:39:11.791Z,27.73
2023-01-09T04:41:50.018Z,25.43
2023-01-09T04:44:19.518Z,27.90
2023-01-09T04:46:47.828Z,23.60
2023-01-09T04:49:16.254Z,23.00
2023-01-09T04:51:44.393Z,24.97
2023-01-09T04:54:12.511Z,28.50
2023-01-09T04:56:41.882Z,27.37
2023-01-09T04:59:10.063Z,27.40
2023-01-09T05:01:38.283Z,28.13
2023-01-09T05:04:06.964Z,24.87
2023-01-09T05:06:35.753Z,24.27
2023-01-09T05:09:03.918Z,27.23
2023-01-09T05:11:32.306Z,29.53
2023-01-09T05:14:01.561Z,24.97
2023-01-09T05:16:31.178Z,27.33
2023-01-09T05:19:00.470Z,29.20
2023-01-09T05:21:28.973Z,28.07
2023-01-09T05:23:56.875Z,28.20
2023-01-09T05:26:25.189Z,29.27
2023-01-09T05:28:53.414Z,24.43
2023-01-09T05:31:23.084Z,30.00
2023-01-09T05:33:51.030Z,25.17
2023-01-09T05:36:19.093Z,25.53
2023-01-09T05:38:47.298Z,25.33
2023-01-09T05:41:15.239Z,24.87
2023-01-09T05:43:43.176Z,22.43
2023-01-09T05:46:11.142Z,23.10
2023-01-09T05:48:40.654Z,24.10
2023-01-09T05:51:08.620Z,27.33
2023-01-09T05:53:36.566Z,39.03
2023-01-09T05:56:04.804Z,50.63
2023-01-09T05:58:32.960Z,32.83
2023-01-09T06:01:00.958Z,26.77
2023-01-09T06:03:28.904Z,33.00
2023-01-09T06:05:58.164Z,27.20
2023-01-09T06:08:26.118Z,27.63
2023-01-09T06:10:54.145Z,36.87
2023-01-09T06:13:22.144Z,31.40
2023-01-09T06:15:50.266Z,25.10
2023-01-09T06:18:18.207Z,30.23
2023-01-09T06:20:46.644Z,31.10
2023-01-09T06:23:15.881Z,29.17
2023-01-09T06:25:44.035Z,28.53
2023-01-09T06:28:11.967Z,26.93
2023-01-09T06:30:40.183Z,29.10
2023-01-09T06:33:08.111Z,27.80
2023-01-09T06:35:36.022Z,31.67
2023-01-09T06:38:03.995Z,31.43
2023-01-09T06:40:33.288Z,27.47
2023-01-09T06:43:01.194Z,30.23
2023-01-09T06:45:29.071Z,25.37
2023-01-09T06:47:56.977Z,26.90
2023-01-09T06:50:24.881Z,29.23
2023-01-09T06:52:52.839Z,28.13
2023-01-09T06:55:21.279Z,31.93
2023-01-09T06:57:50.572Z,31.93
2023-01-09T07:00:19.445Z,31.23
2023-01-09T07:02:47.374Z,26.87
2023-01-09T07:05:15.541Z,27.43
2023-01-09T07:07:43.526Z,32.13
2023-01-09T07:10:12.484Z,27.37
2023-01-09T07:12:40.375Z,28.60
2023-01-09T07:15:10.975Z,26.43
2023-01-09T07:17:39.117Z,24.50
2023-01-09T07:20:08.105Z,25.83
2023-01-09T07:22:36.096Z,30.00
2023-01-09T07:25:04.414Z,24.10
2023-01-09T07:27:32.308Z,26.37
2023-01-09T07:30:00.210Z,23.50
2023-01-09T07:32:29.497Z,31.13
2023-01-09T07:34:57.399Z,31.13
2023-01-09T07:37:25.356Z,33.10
2023-01-09T07:39:53.482Z,33.57
2023-01-09T07:42:21.428Z,27.07
2023-01-09T07:44:49.395Z,24.93
2023-01-09T07:47:17.297Z,25.90
2023-01-09T07:49:46.566Z,27.80
2023-01-09T07:52:14.843Z,24.00
2023-01-09T07:54:42.744Z,26.50
2023-01-09T07:57:10.662Z,22.60
2023-01-09T07:59:38.547Z,23.37
2023-01-09T08:02:07.205Z,22.80
2023-01-09T08:04:35.177Z,24.20
2023-01-09T08:07:04.477Z,23.97
2023-01-09T08:09:32.372Z,21.07
2023-01-09T08:12:00.307Z,20.63
2023-01-09T08:14:28.233Z,21.00
2023-01-09T08:16:56.147Z,21.97
2023-01-09T08:19:24.229Z,21.80
2023-01-09T08:21:52.149Z,25.80
2023-01-09T08:24:21.423Z,31.53
2023-01-09T08:26:51.738Z,27.03
2023-01-09T08:29:19.724Z,23.50
2023-01-09T08:31:47.715Z,23.50
2023-01-09T08:34:15.652Z,24.20
2023-01-09T08:36:43.580Z,20.67
2023-01-09T08:39:11.638Z,23.77
2023-01-09T08:41:58.364Z,21.63
2023-01-09T08:44:40.220Z,22.90
2023-01-09T08:47:08.416Z,21.43
2023-01-09T08:49:38.120Z,28.10
2023-01-09T08:52:07.486Z,21.77
2023-01-09T08:54:36.770Z,22.63
2023-01-09T08:57:06.247Z,23.57
2023-01-09T08:59:34.177Z,24.10
2023-01-09T09:02:02.250Z,22.13
2023-01-09T09:04:30.812Z,21.53
2023-01-09T09:06:58.819Z,22.50
2023-01-09T09:09:26.838Z,21.50
2023-01-09T09:11:54.788Z,19.87
2023-01-09T09:14:42.087Z,21.17
2023-01-09T09:17:10.007Z,19.37
2023-01-09T09:19:39.477Z,18.80
2023-01-09T09:22:07.575Z,28.03
2023-01-09T09:24:35.586Z,19.93
2023-01-09T09:27:04.648Z,18.67
2023-01-09T09:29:33.906Z,16.57
2023-01-09T09:32:01.950Z,18.73
2023-01-09T09:34:29.949Z,17.80
2023-01-09T09:36:57.894Z,19.37
2023-01-09T09:39:25.912Z,18.07
2023-01-09T09:42:31.777Z,17.40
2023-01-09T09:45:12.486Z,18.80
2023-01-09T09:47:51.882Z,17.90
2023-01-09T09:50:36.129Z,17.80
2023-01-09T09:53:11.541Z,16.70
2023-01-09T09:55:41.166Z,18.93
2023-01-09T09:58:14.951Z,17.00
2023-01-09T10:00:44.399Z,17.27
2023-01-09T10:03:32.991Z,15.50
2023-01-09T10:06:03.554Z,15.03
2023-01-09T10:08:39.214Z,13.90
2023-01-09T10:11:12.897Z,12.97
2023-01-09T10:13:58.431Z,13.20
2023-01-09T10:16:40.280Z,12.83
2023-01-09T10:19:19.298Z,14.83
2023-01-09T10:21:57.987Z,11.80
2023-01-09T10:24:43.000Z,12.30
2023-01-09T10:27:28.149Z,8.80
2023-01-09T10:30:08.128Z,6.93
2023-01-09T10:32:51.337Z,7.17
2023-01-09T10:35:47.268Z,5.77
2023-01-09T10:38:19.232Z,4.57
2023-01-09T10:40:51.389Z,5.00
2023-01-09T10:43:30.378Z,4.93
2023-01-09T10:46:03.199Z,4.40
2023-01-09T10:48:36.285Z,4.67
2023-01-09T10:51:14.063Z,3.90
2023-01-09T10:53:46.569Z,4.93
2023-01-09T10:56:20.293Z,5.27
2023-01-09T10:58:49.435Z,4.53
2023-01-09T11:01:20.371Z,3.60
2023-01-09T11:03:49.704Z,4.00
2023-01-09T11:06:22.827Z,3.90
2023-01-09T11:08:54.120Z,3.40
2023-01-09T11:11:34.955Z,3.50
2023-01-09T11:14:08.659Z,3.40
2023-01-09T11:16:36.672Z,2.73
2023-01-09T11:19:05.948Z,2.73
2023-01-09T11:21:36.313Z,2.23
2023-01-09T11:24:29.527Z,2.13
2023-01-09T11:27:24.425Z,2.93
2023-01-09T11:30:26.879Z,2.80
2023-01-09T11:32:56.201Z,2.23
2023-01-09T11:35:29.028Z,2.40
2023-01-09T11:38:06.383Z,2.37
2023-01-09T11:40:39.855Z,2.50
2023-01-09T11:43:22.300Z,1.90
2023-01-09T11:46:00.768Z,2.00
2023-01-09T11:48:32.884Z,2.13
2023-01-09T11:51:03.714Z,2.20
2023-01-09T11:53:46.499Z,1.87
2023-01-09T11:56:16.530Z,1.57
2023-01-09T11:58:44.670Z,2.00
2023-01-09T12:01:34.561Z,2.17
2023-01-09T12:04:20.553Z,1.90
2023-01-09T12:07:02.109Z,2.30
2023-01-09T12:09:40.614Z,2.00
2023-01-09T12:12:18.808Z,1.93
2023-01-09T12:14:58.951Z,2.50
2023-01-09T12:17:45.209Z,2.37
2023-01-09T12:20:34.652Z,2.13
2023-01-09T12:23:21.599Z,3.07
2023-01-09T12:25:58.043Z,1.90
2023-01-09T12:28:48.284Z,1.90
2023-01-09T12:31:36.979Z,2.27
2023-01-09T12:34:16.877Z,2.27
2023-01-09T12:36:54.655Z,2.00
2023-01-09T12:39:32.757Z,2.37
2023-01-09T12:42:29.419Z,2.60
2023-01-09T12:49:30.804Z,2.33
2023-01-09T12:52:06.871Z,2.20
2023-01-09T12:54:41.325Z,2.10
2023-01-09T12:57:16.180Z,2.13
2023-01-09T12:59:48.617Z,2.43
2023-01-09T13:02:24.213Z,2.40
2023-01-09T13:04:57.770Z,2.90
2023-01-09T13:07:28.865Z,3.27
2023-01-09T13:10:03.656Z,3.00
2023-01-09T13:12:38.688Z,3.00
2023-01-09T13:15:20.788Z,2.30
2023-01-09T13:17:52.267Z,3.00
2023-01-09T13:20:23.802Z,2.30
2023-01-09T13:22:53.277Z,2.37
2023-01-09T13:25:35.057Z,2.60
2023-01-09T13:28:08.886Z,2.20
2023-01-09T13:31:01.032Z,2.60
2023-01-09T13:33:31.139Z,2.73
2023-01-09T13:36:02.859Z,2.73
2023-01-09T13:38:32.691Z,3.37
2023-01-09T13:41:29.752Z,6.00
2023-01-09T13:44:00.409Z,2.60
2023-01-09T13:46:40.506Z,3.20
2023-01-09T13:49:29.832Z,4.37
2023-01-09T13:52:00.997Z,4.50
2023-01-09T13:55:17.926Z,3.00
2023-01-09T13:58:22.648Z,2.90
2023-01-09T14:00:59.995Z,2.10
2023-01-09T14:03:36.623Z,1.80
2023-01-09T14:06:20.200Z,2.10
2023-01-09T14:08:50.526Z,2.03
2023-01-09T14:11:23.012Z,2.00
2023-01-09T14:14:05.135Z,2.30
2023-01-09T14:16:33.742Z,2.40
2023-01-09T14:19:06.726Z,1.83
2023-01-09T14:21:46.695Z,2.10
2023-01-09T14:24:22.773Z,2.20
2023-01-09T14:26:56.578Z,2.10
2023-01-09T14:29:47.375Z,2.03
2023-01-09T14:32:46.571Z,1.80
2023-01-09T14:35:20.657Z,1.90
2023-01-09T14:38:03.113Z,1.93
2023-01-09T14:40:32.445Z,1.57
2023-01-09T14:43:08.294Z,1.80
2023-01-09T14:45:41.112Z,1.70
2023-01-09T14:48:13.103Z,1.73
2023-01-09T14:50:46.690Z,2.03
2023-01-09T14:53:19.691Z,2.97
2023-01-09T14:55:52.473Z,2.40
2023-01-09T14:58:23.647Z,2.80
2023-01-09T15:00:59.890Z,2.23
2023-01-09T15:03:33.062Z,2.30
2023-01-09T15:06:01.878Z,2.20
2023-01-09T15:08:30.383Z,2.27
2023-01-09T15:11:00.000Z,2.40
2023-01-09T15:13:37.408Z,3.10
2023-01-09T15:16:15.737Z,3.87
2023-01-09T15:18:44.559Z,3.43
2023-01-09T15:21:20.997Z,3.27
2023-01-09T15:23:48.959Z,2.33
2023-01-09T15:26:27.084Z,4.77
2023-01-09T15:29:01.926Z,10.57
2023-01-09T15:31:31.628Z,4.07
2023-01-09T15:33:59.609Z,26.07
2023-01-09T15:36:30.881Z,20.23
2023-01-09T15:39:00.436Z,15.20
2023-01-09T15:41:48.124Z,14.80
2023-01-09T15:44:20.341Z,3.90
2023-01-09T15:46:51.785Z,2.40
2023-01-09T15:49:20.591Z,3.30
2023-01-09T15:51:49.986Z,3.83
2023-01-09T15:54:21.076Z,2.63
2023-01-09T15:56:49.000Z,2.90
2023-01-09T15:59:26.926Z,3.43
2023-01-09T16:02:15.410Z,4.77
2023-01-09T16:04:43.391Z,5.83
2023-01-09T16:07:16.293Z,3.90
2023-01-09T16:09:47.443Z,2.97
2023-01-09T16:12:20.933Z,2.30
2023-01-09T16:14:53.014Z,2.70
2023-01-09T16:17:26.446Z,3.40
2023-01-09T16:19:57.734Z,2.60
2023-01-09T16:22:27.602Z,3.53
2023-01-09T16:24:57.666Z,2.30
2023-01-09T16:27:28.507Z,3.83
2023-01-09T16:29:58.891Z,2.70
2023-01-09T16:32:30.638Z,3.50
2023-01-09T16:35:04.469Z,3.50
2023-01-09T16:37:34.154Z,2.87
2023-01-09T16:40:24.556Z,3.23
2023-01-09T16:43:00.366Z,3.10
2023-01-09T16:45:29.982Z,2.27
2023-01-09T16:47:59.460Z,2.43
2023-01-09T16:50:27.633Z,4.40
2023-01-09T16:52:57.305Z,4.67
2023-01-09T16:55:25.481Z,4.90
2023-01-09T16:57:53.679Z,3.70
2023-01-09T17:00:22.484Z,3.27
2023-01-09T17:02:50.410Z,2.57
2023-01-09T17:05:19.707Z,2.03
2023-01-09T17:07:47.633Z,2.73
2023-01-09T17:10:21.430Z,2.80
2023-01-09T17:12:50.715Z,2.00
2023-01-09T17:15:18.645Z,108.00
2023-01-09T17:17:46.619Z,7.83
2023-01-09T17:20:17.504Z,3.00
2023-01-09T17:22:46.791Z,2.47
2023-01-09T17:25:33.578Z,2.40
2023-01-09T17:28:20.054Z,2.57
2023-01-09T17:30:48.185Z,4.07
2023-01-09T17:33:17.641Z,2.90
2023-01-09T17:35:46.311Z,4.07
2023-01-09T17:38:16.278Z,2.50
2023-01-09T17:40:44.767Z,3.37
2023-01-09T17:43:13.327Z,4.03
2023-01-09T17:45:42.550Z,5.60
2023-01-09T17:48:16.284Z,3.77
2023-01-09T17:50:44.545Z,4.80
2023-01-09T17:53:12.921Z,4.73
2023-01-09T17:55:43.568Z,7.73
2023-01-09T17:58:26.324Z,16.17
2023-01-09T18:00:54.508Z,7.67
2023-01-09T18:03:23.164Z,4.30
2023-01-09T18:05:51.128Z,2.27
2023-01-09T18:08:19.684Z,2.73
2023-01-09T18:10:49.393Z,2.40
2023-01-09T18:13:17.539Z,2.37
2023-01-09T18:15:46.077Z,3.20
2023-01-09T18:18:17.333Z,3.17
2023-01-09T18:20:46.298Z,2.80
2023-01-09T18:23:14.795Z,4.30
2023-01-09T18:25:43.982Z,3.43
2023-01-09T18:28:15.238Z,2.80
2023-01-09T18:30:45.515Z,2.63
2023-01-09T18:33:13.972Z,3.07
2023-01-09T18:35:42.454Z,4.10
2023-01-09T18:38:10.727Z,2.50
2023-01-09T18:40:39.052Z,3.13
2023-01-09T18:43:09.059Z,2.87
2023-01-09T18:45:40.068Z,4.70
2023-01-09T18:48:09.515Z,2.83
2023-01-09T18:50:37.447Z,2.50
2023-01-09T18:53:06.255Z,4.03
2023-01-09T18:55:34.240Z,3.50
2023-01-09T18:58:02.512Z,3.20
2023-01-09T19:00:30.565Z,3.43
2023-01-09T19:03:00.101Z,3.17
2023-01-09T19:05:28.026Z,2.70
2023-01-09T19:07:56.017Z,2.87
2023-01-09T19:10:24.092Z,2.80
2023-01-09T19:12:52.088Z,2.30
2023-01-09T19:15:20.191Z,2.53
2023-01-09T19:17:50.262Z,2.23
2023-01-09T19:20:20.136Z,2.30
2023-01-09T19:22:48.095Z,2.53
2023-01-09T19:25:16.087Z,2.67
2023-01-09T19:27:44.040Z,3.40
2023-01-09T19:30:13.458Z,5.63
2023-01-09T19:32:41.404Z,3.33
2023-01-09T19:35:10.096Z,3.60
2023-01-09T19:37:39.400Z,2.93
2023-01-09T19:40:08.580Z,2.40
2023-01-09T19:42:36.572Z,2.97
2023-01-09T19:45:05.755Z,2.10
2023-01-09T19:47:35.943Z,2.20
2023-01-09T19:50:05.462Z,2.43
2023-01-09T19:52:33.459Z,2.93
2023-01-09T19:55:02.758Z,2.83
2023-01-09T19:57:30.699Z,3.10
2023-01-09T19:59:58.601Z,3.23
2023-01-09T20:02:27.828Z,3.10
2023-01-09T20:04:55.943Z,2.30
2023-01-09T20:07:24.099Z,2.87
2023-01-09T20:09:52.077Z,2.40
2023-01-09T20:12:21.361Z,2.80
2023-01-09T20:14:49.724Z,2.60
2023-01-09T20:17:17.913Z,2.40
2023-01-09T20:19:46.100Z,2.50
2023-01-09T20:22:14.252Z,2.37
2023-01-09T20:24:42.222Z,3.20
2023-01-09T20:27:10.118Z,2.43
2023-01-09T20:29:39.790Z,2.70
2023-01-09T20:32:08.846Z,2.80
2023-01-09T20:34:36.927Z,3.17
2023-01-09T20:37:04.871Z,3.03
2023-01-09T20:39:32.839Z,4.20
2023-01-09T20:42:00.809Z,3.20
2023-01-09T20:44:28.742Z,2.57
2023-01-09T20:46:58.019Z,3.80
2023-01-09T20:49:25.992Z,7.17
2023-01-09T20:51:54.321Z,5.20
2023-01-09T20:54:22.868Z,7.07
2023-01-09T20:56:51.218Z,5.47
2023-01-09T20:59:21.903Z,6.30
2023-01-09T21:01:50.261Z,4.60
2023-01-09T21:04:20.269Z,3.87
2023-01-09T21:06:50.019Z,3.07
2023-01-09T21:09:19.145Z,3.50
2023-01-09T21:11:47.040Z,3.77
2023-01-09T21:14:14.942Z,4.10
2023-01-09T21:16:45.513Z,3.97
2023-01-09T21:19:21.389Z,5.00
2023-01-09T21:21:51.600Z,3.47
2023-01-09T21:24:20.968Z,5.20
2023-01-09T21:26:48.964Z,4.00
2023-01-09T21:29:17.492Z,3.70
2023-01-09T21:31:45.808Z,3.53
2023-01-09T21:34:14.800Z,3.67
2023-01-09T21:36:45.021Z,2.90
2023-01-09T21:39:12.983Z,3.40
2023-01-09T21:41:58.257Z,3.13
2023-01-09T21:44:43.932Z,3.23
2023-01-09T21:47:11.887Z,3.10
2023-01-09T21:49:41.591Z,2.93
2023-01-09T21:52:12.790Z,3.80
2023-01-09T21:54:41.452Z,3.30
2023-01-09T21:57:09.420Z,3.80
2023-01-09T21:59:37.542Z,3.30
2023-01-09T22:02:05.623Z,3.20
2023-01-09T22:04:33.612Z,2.63
2023-01-09T22:07:01.819Z,3.60
2023-01-09T22:09:31.197Z,4.13
2023-01-09T22:11:59.182Z,4.10
2023-01-09T22:14:27.102Z,3.10
2023-01-09T22:16:54.984Z,3.10
2023-01-09T22:19:22.865Z,2.87
2023-01-09T22:21:50.895Z,2.13
2023-01-09T22:24:21.543Z,2.13
2023-01-09T22:26:50.885Z,2.70
2023-01-09T22:29:19.457Z,2.73
2023-01-09T22:31:47.873Z,2.10
2023-01-09T22:34:18.522Z,2.13
2023-01-09T22:36:47.182Z,2.33
2023-01-09T22:39:17.121Z,2.50
2023-01-09T22:41:45.341Z,3.17
2023-01-09T22:44:14.811Z,2.40
2023-01-09T22:46:42.716Z,2.33
2023-01-09T22:49:12.004Z,2.37
2023-01-09T22:51:40.019Z,2.53
2023-01-09T22:54:07.977Z,2.47
2023-01-09T22:56:36.150Z,3.20
2023-01-09T22:59:04.540Z,4.80
2023-01-09T23:01:33.830Z,3.27
2023-01-09T23:04:03.593Z,2.30
2023-01-09T23:06:31.614Z,2.60
2023-01-09T23:08:59.526Z,2.53
2023-01-09T23:11:47.257Z,2.37
2023-01-09T23:14:15.320Z,2.93
2023-01-09T23:16:44.991Z,2.77
2023-01-09T23:19:15.573Z,2.80
2023-01-09T23:21:45.006Z,2.77
2023-01-09T23:24:14.498Z,2.23
2023-01-09T23:26:43.500Z,2.80
2023-01-09T23:29:12.541Z,2.63
2023-01-09T23:31:40.626Z,2.70
2023-01-09T23:34:13.699Z,2.77
2023-01-09T23:36:42.066Z,2.67
2023-01-09T23:39:10.141Z,2.50
2023-01-09T23:41:55.908Z,2.20
2023-01-09T23:44:23.882Z,3.13
2023-01-09T23:46:52.085Z,2.47
2023-01-09T23:49:21.625Z,2.10
2023-01-09T23:51:49.609Z,3.13
2023-01-09T23:54:18.710Z,2.50
2023-01-09T23:56:46.659Z,2.27
2023-01-09T23:59:17.420Z,2.10
